Prentiss, North Carolina
Current Conditions -  °F | °C
As of 11:15 AM on Thursday 27 Nov 2014 (Local Time) from KRHP Reporting Station
Overcast Overcast  
Wind Chill: 33°   Ceiling: 3400
Heat Index: 37°   Visibility: 10mi
Dew Point: 28°   Wind: 5mph
Humidity: 71%   Direction: 360°N
Pressure: 30.23"   Gusts: NA
Location:  35.1737°N, 83.4215°W
Report Text: KRHP 271615Z AUTO 36004KT 10SM OVC034 03/M02 A3023 RMK AO2 T00271021
Loading
Personal Weather Stations






























Interactive Weather Map New forecast layout! Learn more

10-Day Weather Forecast

Advertisements
Track Severe Weather on mobile